Time;durP1;ratioP1;P1;durP2;ratioP2;P2;SDS_P1;SDS_P2;PMS_P1;PMS_P2;Temp;Humidity;BMP_temperature;BMP_pressure;BME280_temperature;BME280_humidity;BME280_pressure;Samples;Min_cycle;Max_cycle;Signal;HPM_P1;HPM_P2
2022/09/06 00:02:46;;;;;;;9.23;7.10;;;;;;;;;;6353796;27;20051;-65
2022/09/06 00:05:51;;;;;;;10.33;5.67;;;;;;;;;;6359173;27;20054;-65
2022/09/06 00:08:53;;;;;;;7.55;5.88;;;;;;;;;;6348243;27;20051;-67
2022/09/06 00:11:56;;;;;;;7.88;6.32;;;;;;;;;;6353492;27;20227;-66
2022/09/06 00:14:58;;;;;;;12.60;6.40;;;;;;;;;;6350932;27;20054;-65
2022/09/06 00:18:00;;;;;;;12.82;6.68;;;;;;;;;;6339737;27;20054;-66
2022/09/06 00:21:02;;;;;;;9.35;5.63;;;;;;;;;;6352981;27;20050;-66
2022/09/06 00:24:03;;;;;;;11.77;6.43;;;;;;;;;;6352193;27;20052;-65
2022/09/06 00:27:08;;;;;;;6.90;5.57;;;;;;;;;;6348138;28;20263;-66
2022/09/06 00:30:11;;;;;;;9.93;6.45;;;;;;;;;;6355115;27;20051;-67
2022/09/06 00:33:13;;;;;;;11.85;6.88;;;;;;;;;;6352419;28;20047;-66
2022/09/06 00:36:16;;;;;;;11.23;6.63;;;;;;;;;;6350039;27;20060;-65
2022/09/06 00:39:17;;;;;;;8.13;6.00;;;;;;;;;;6348136;27;20059;-65
2022/09/06 00:42:20;;;;;;;11.73;6.70;;;;;;;;;;6352889;27;20077;-66
2022/09/06 00:45:22;;;;;;;;;;;;;;;;;;6347783;27;20112;-65
2022/09/06 00:48:24;;;;;;;8.60;5.80;;;;;;;;;;6350910;27;19916;-66
2022/09/06 00:51:28;;;;;;;9.18;6.20;;;;;;;;;;6353213;27;20324;-65
2022/09/06 00:54:30;;;;;;;7.15;5.60;;;;;;;;;;6339369;27;20055;-68
2022/09/06 00:57:34;;;;;;;7.55;6.57;;;;;;;;;;6349050;27;20046;-66
2022/09/06 01:00:38;;;;;;;6.15;5.57;;;;;;;;;;6334915;27;20101;-66
2022/09/06 01:03:40;;;;;;;6.43;5.50;;;;;;;;;;6331015;28;20065;-66
2022/09/06 01:06:49;;;;;;;6.43;5.82;;;;;;;;;;6333088;28;20043;-66
2022/09/06 01:10:01;;;;;;;8.68;6.03;;;;;;;;;;6337241;28;20113;-66
2022/09/06 01:13:15;;;;;;;7.22;6.25;;;;;;;;;;6329795;28;20051;-66
2022/09/06 01:16:25;;;;;;;6.97;5.90;;;;;;;;;;6330638;28;20115;-66
2022/09/06 01:19:51;;;;;;;8.88;6.25;;;;;;;;;;6331245;28;20075;-66
2022/09/06 01:23:23;;;;;;;8.63;6.18;;;;;;;;;;6317516;28;20060;-66
2022/09/06 01:26:44;;;;;;;6.28;5.60;;;;;;;;;;6318349;28;20047;-66
2022/09/06 01:29:49;;;;;;;7.28;6.07;;;;;;;;;;6335083;28;20058;-66
2022/09/06 01:32:55;;;;;;;7.38;6.05;;;;;;;;;;6326061;28;20044;-67
2022/09/06 01:35:59;;;;;;;7.28;6.50;;;;;;;;;;6331764;28;20063;-66
2022/09/06 01:39:01;;;;;;;7.05;6.40;;;;;;;;;;6335665;28;20416;-66
2022/09/06 01:42:06;;;;;;;6.80;6.10;;;;;;;;;;6328679;28;20097;-67
2022/09/06 01:45:12;;;;;;;7.72;6.00;;;;;;;;;;6333446;28;20055;-67
2022/09/06 01:48:24;;;;;;;6.60;5.78;;;;;;;;;;6334135;28;20119;-66
2022/09/06 01:51:29;;;;;;;7.03;5.68;;;;;;;;;;6331338;28;20126;-67
2022/09/06 01:54:41;;;;;;;6.50;5.80;;;;;;;;;;6327969;28;20330;-67
2022/09/06 01:57:52;;;;;;;6.82;5.15;;;;;;;;;;6330207;28;20070;-66
2022/09/06 02:01:00;;;;;;;8.55;6.22;;;;;;;;;;6332912;28;20096;-66
2022/09/06 02:04:09;;;;;;;5.80;5.20;;;;;;;;;;6330793;28;20067;-66
2022/09/06 02:07:16;;;;;;;11.43;5.88;;;;;;;;;;6331729;28;20769;-67
2022/09/06 02:10:22;;;;;;;5.93;5.43;;;;;;;;;;6332585;28;20044;-67
2022/09/06 02:13:26;;;;;;;6.30;5.68;;;;;;;;;;6331748;28;20126;-66
2022/09/06 02:16:30;;;;;;;6.00;5.50;;;;;;;;;;6328081;28;20105;-65
2022/09/06 02:19:36;;;;;;;6.88;6.03;;;;;;;;;;6325726;28;20398;-66
2022/09/06 02:22:40;;;;;;;6.63;5.97;;;;;;;;;;6334213;28;20052;-66
2022/09/06 02:25:45;;;;;;;6.30;5.70;;;;;;;;;;6330440;28;20047;-66
2022/09/06 02:28:47;;;;;;;6.38;5.78;;;;;;;;;;6331601;28;20051;-66
2022/09/06 02:31:53;;;;;;;7.00;6.30;;;;;;;;;;6335290;28;20097;-67
2022/09/06 02:35:01;;;;;;;8.65;6.07;;;;;;;;;;6328378;28;20271;-66
2022/09/06 02:38:02;;;;;;;8.00;5.60;;;;;;;;;;6333011;28;20052;-67
2022/09/06 02:41:05;;;;;;;6.78;6.07;;;;;;;;;;6332896;28;20043;-66
2022/09/06 02:44:07;;;;;;;7.15;5.95;;;;;;;;;;6336643;28;20594;-68
2022/09/06 02:47:10;;;;;;;6.63;5.90;;;;;;;;;;6334863;28;20051;-67
2022/09/06 02:50:15;;;;;;;7.07;6.38;;;;;;;;;;6333819;28;20085;-67
2022/09/06 02:53:17;;;;;;;9.52;6.35;;;;;;;;;;6337099;28;20067;-66
2022/09/06 02:56:19;;;;;;;8.30;6.10;;;;;;;;;;6333448;28;20276;-67
2022/09/06 02:59:21;;;;;;;6.93;5.97;;;;;;;;;;6346266;27;20099;-66
2022/09/06 03:02:24;;;;;;;9.02;6.80;;;;;;;;;;6358109;27;20407;-66
2022/09/06 03:05:27;;;;;;;8.27;5.82;;;;;;;;;;6362990;27;20048;-66
2022/09/06 03:08:32;;;;;;;8.60;6.32;;;;;;;;;;6355673;27;20224;-65
2022/09/06 03:11:33;;;;;;;7.20;6.47;;;;;;;;;;6361871;27;20062;-65
2022/09/06 03:14:36;;;;;;;7.00;6.13;;;;;;;;;;6360475;27;20060;-66
2022/09/06 03:17:39;;;;;;;7.40;6.63;;;;;;;;;;6361285;27;20667;-66
2022/09/06 03:20:41;;;;;;;6.65;5.72;;;;;;;;;;6357524;27;20101;-65
2022/09/06 03:23:44;;;;;;;7.15;6.45;;;;;;;;;;6359836;27;20059;-67
2022/09/06 03:26:46;;;;;;;7.07;6.38;;;;;;;;;;6357433;27;20079;-66
2022/09/06 03:29:47;;;;;;;8.55;5.72;;;;;;;;;;6356062;27;20433;-66
2022/09/06 03:32:50;;;;;;;9.13;6.35;;;;;;;;;;6358776;27;20119;-66
2022/09/06 03:35:54;;;;;;;7.00;6.18;;;;;;;;;;6361553;27;20066;-65
2022/09/06 03:38:57;;;;;;;7.03;5.72;;;;;;;;;;6362807;27;20062;-66
2022/09/06 03:41:58;;;;;;;7.82;6.05;;;;;;;;;;6355989;27;20054;-66
2022/09/06 03:45:00;;;;;;;9.93;5.95;;;;;;;;;;6357726;27;20055;-66
2022/09/06 03:48:03;;;;;;;7.82;5.90;;;;;;;;;;6362494;27;20096;-66
2022/09/06 03:51:05;;;;;;;7.95;6.05;;;;;;;;;;6359327;27;20059;-67
2022/09/06 03:54:07;;;;;;;7.40;6.60;;;;;;;;;;6354938;27;20044;-68
2022/09/06 03:57:09;;;;;;;10.25;6.25;;;;;;;;;;6353845;27;20047;-67
2022/09/06 04:00:11;;;;;;;8.80;6.35;;;;;;;;;;6359563;27;20254;-69
2022/09/06 04:03:14;;;;;;;7.70;6.88;;;;;;;;;;6352953;27;20047;-66
2022/09/06 04:06:16;;;;;;;7.55;6.20;;;;;;;;;;6359490;27;20051;-67
2022/09/06 04:09:18;;;;;;;11.15;6.53;;;;;;;;;;6354917;27;20050;-66
2022/09/06 04:12:20;;;;;;;8.32;6.28;;;;;;;;;;6360228;27;20043;-67
2022/09/06 04:15:21;;;;;;;8.57;6.90;;;;;;;;;;6359256;27;20102;-67
2022/09/06 04:18:25;;;;;;;8.32;6.57;;;;;;;;;;6358836;27;20055;-69
2022/09/06 04:21:30;;;;;;;8.13;6.95;;;;;;;;;;6347030;27;20059;-66
2022/09/06 04:24:32;;;;;;;9.43;6.40;;;;;;;;;;6355597;27;20055;-68
2022/09/06 04:27:34;;;;;;;8.07;6.18;;;;;;;;;;6359061;27;20045;-66
2022/09/06 04:30:36;;;;;;;13.80;9.68;;;;;;;;;;6356857;27;20055;-67
2022/09/06 04:33:39;;;;;;;14.45;8.32;;;;;;;;;;6359537;27;20047;-67
2022/09/06 04:36:41;;;;;;;8.15;7.03;;;;;;;;;;6358388;27;20051;-67
2022/09/06 04:39:43;;;;;;;7.95;6.93;;;;;;;;;;6359621;27;20043;-69
2022/09/06 04:42:45;;;;;;;7.78;6.50;;;;;;;;;;6355449;27;20051;-67
2022/09/06 04:45:47;;;;;;;9.05;6.85;;;;;;;;;;6358075;27;20096;-67
2022/09/06 04:48:51;;;;;;;9.30;7.50;;;;;;;;;;6359723;27;20043;-67
2022/09/06 04:52:02;;;;;;;11.20;7.43;;;;;;;;;;6358158;27;20048;-67
2022/09/06 04:55:04;;;;;;;20.45;7.20;;;;;;;;;;6353583;27;20066;-68
2022/09/06 04:58:06;;;;;;;15.30;6.87;;;;;;;;;;6359792;27;20062;-67
2022/09/06 05:01:08;;;;;;;15.02;7.22;;;;;;;;;;6350620;27;20070;-67
2022/09/06 05:04:11;;;;;;;13.07;7.00;;;;;;;;;;6349577;27;20055;-66
2022/09/06 05:07:13;;;;;;;11.07;6.43;;;;;;;;;;6353217;27;20062;-67
2022/09/06 05:10:15;;;;;;;8.65;6.50;;;;;;;;;;6353358;27;20081;-69
2022/09/06 05:13:16;;;;;;;9.82;5.65;;;;;;;;;;6350360;27;20051;-68
2022/09/06 05:16:18;;;;;;;9.90;7.03;;;;;;;;;;6350539;27;20047;-66
2022/09/06 05:19:21;;;;;;;7.07;6.38;;;;;;;;;;6352484;27;20055;-66
2022/09/06 05:22:23;;;;;;;;;;;;;;;;;;6352308;27;20051;-67
2022/09/06 05:25:25;;;;;;;12.65;6.85;;;;;;;;;;6352854;27;19916;-66
2022/09/06 05:28:26;;;;;;;11.43;8.02;;;;;;;;;;6352112;27;20052;-66
2022/09/06 05:31:29;;;;;;;8.60;7.70;;;;;;;;;;6354944;27;20055;-66
2022/09/06 05:34:32;;;;;;;12.98;8.05;;;;;;;;;;6356433;27;20066;-66
2022/09/06 05:37:34;;;;;;;9.60;6.82;;;;;;;;;;6357240;27;20043;-66
2022/09/06 05:40:35;;;;;;;11.88;6.85;;;;;;;;;;6355554;27;20047;-69
2022/09/06 05:43:37;;;;;;;10.52;7.18;;;;;;;;;;6354185;27;20230;-67
2022/09/06 05:46:42;;;;;;;10.75;6.60;;;;;;;;;;6349608;27;20100;-67
2022/09/06 05:49:46;;;;;;;10.60;6.95;;;;;;;;;;6352625;27;20051;-68
2022/09/06 05:52:47;;;;;;;10.55;7.30;;;;;;;;;;6348766;27;20051;-67
2022/09/06 05:55:49;;;;;;;10.00;6.90;;;;;;;;;;6346262;27;20410;-66
2022/09/06 05:58:51;;;;;;;12.90;8.45;;;;;;;;;;6350099;28;20040;-67
2022/09/06 06:01:53;;;;;;;12.95;7.38;;;;;;;;;;6352183;28;20056;-66
2022/09/06 06:04:57;;;;;;;9.10;7.15;;;;;;;;;;6350602;27;20051;-65
2022/09/06 06:07:58;;;;;;;11.82;7.90;;;;;;;;;;6350312;28;20085;-68
2022/09/06 06:11:00;;;;;;;9.98;7.18;;;;;;;;;;6349867;27;20114;-66
2022/09/06 06:14:02;;;;;;;8.55;6.93;;;;;;;;;;6355905;27;20078;-69
2022/09/06 06:17:04;;;;;;;9.30;7.03;;;;;;;;;;6357591;27;20051;-67
2022/09/06 06:20:09;;;;;;;7.80;6.90;;;;;;;;;;6357514;27;20051;-67
2022/09/06 06:23:10;;;;;;;8.90;6.63;;;;;;;;;;6357968;27;20277;-67
2022/09/06 06:26:12;;;;;;;8.48;7.68;;;;;;;;;;6359081;27;20109;-67
2022/09/06 06:29:14;;;;;;;10.30;7.55;;;;;;;;;;6357605;27;20108;-67
2022/09/06 06:32:16;;;;;;;10.38;7.35;;;;;;;;;;6357057;27;20055;-66
2022/09/06 06:35:19;;;;;;;10.15;7.88;;;;;;;;;;6356052;27;20411;-67
2022/09/06 06:38:21;;;;;;;;;;;;;;;;;;6359834;27;20040;-67
2022/09/06 06:41:24;;;;;;;10.93;7.78;;;;;;;;;;6357667;27;19915;-70
2022/09/06 06:44:26;;;;;;;10.77;7.40;;;;;;;;;;6359440;27;20463;-67
2022/09/06 06:47:28;;;;;;;11.10;8.45;;;;;;;;;;6355901;27;20059;-67
2022/09/06 06:50:31;;;;;;;11.55;7.70;;;;;;;;;;6357027;27;20110;-67
2022/09/06 06:53:34;;;;;;;12.07;8.55;;;;;;;;;;6357958;27;20048;-70
2022/09/06 06:56:37;;;;;;;13.90;9.98;;;;;;;;;;6352726;27;20246;-68
2022/09/06 06:59:39;;;;;;;10.25;9.18;;;;;;;;;;6354809;27;20055;-67
2022/09/06 07:02:40;;;;;;;10.38;8.50;;;;;;;;;;6356452;27;20107;-67
2022/09/06 07:05:45;;;;;;;12.65;10.13;;;;;;;;;;6354696;27;20052;-66
2022/09/06 07:08:47;;;;;;;12.05;8.88;;;;;;;;;;6356362;27;20039;-67
2022/09/06 07:11:49;;;;;;;12.60;8.10;;;;;;;;;;6358350;27;20051;-67
2022/09/06 07:14:51;;;;;;;14.65;9.52;;;;;;;;;;6356290;27;20048;-67
2022/09/06 07:17:54;;;;;;;10.93;9.27;;;;;;;;;;6353551;27;20055;-68
2022/09/06 07:20:58;;;;;;;12.23;9.15;;;;;;;;;;6354617;27;20074;-67
2022/09/06 07:23:59;;;;;;;9.95;8.35;;;;;;;;;;6357050;27;20051;-66
2022/09/06 07:27:01;;;;;;;11.82;9.00;;;;;;;;;;6356799;27;20055;-66
2022/09/06 07:30:03;;;;;;;10.57;8.93;;;;;;;;;;6357720;27;20176;-67
2022/09/06 07:33:05;;;;;;;16.10;8.68;;;;;;;;;;6354681;27;20180;-67
2022/09/06 07:36:08;;;;;;;9.80;7.30;;;;;;;;;;6355130;27;20050;-67
2022/09/06 07:39:10;;;;;;;9.80;7.32;;;;;;;;;;6358045;27;20066;-67
2022/09/06 07:42:11;;;;;;;11.55;9.27;;;;;;;;;;6354333;27;20360;-67
2022/09/06 07:45:13;;;;;;;9.52;7.68;;;;;;;;;;6357646;27;20063;-69
2022/09/06 07:48:15;;;;;;;9.73;7.80;;;;;;;;;;6354281;27;20047;-67
2022/09/06 07:51:20;;;;;;;13.95;7.93;;;;;;;;;;6355220;27;20043;-67
2022/09/06 07:54:22;;;;;;;10.35;8.80;;;;;;;;;;6355207;27;20051;-68
2022/09/06 07:57:23;;;;;;;10.93;7.50;;;;;;;;;;6354145;27;20064;-67
2022/09/06 08:00:26;;;;;;;10.30;7.45;;;;;;;;;;6353121;27;20063;-67
2022/09/06 08:03:27;;;;;;;14.43;8.18;;;;;;;;;;6355739;27;20052;-67
2022/09/06 08:06:32;;;;;;;10.63;8.65;;;;;;;;;;6354884;27;20050;-69
2022/09/06 08:09:34;;;;;;;15.73;9.15;;;;;;;;;;6355100;27;20085;-67
2022/09/06 08:12:35;;;;;;;11.90;8.60;;;;;;;;;;6354460;27;20054;-68
2022/09/06 08:15:37;;;;;;;11.02;8.13;;;;;;;;;;6354543;27;20052;-67
2022/09/06 08:18:39;;;;;;;10.43;7.25;;;;;;;;;;6355720;27;20063;-68
2022/09/06 08:21:42;;;;;;;9.63;7.20;;;;;;;;;;6353397;27;20292;-68
2022/09/06 08:24:44;;;;;;;10.30;7.53;;;;;;;;;;6354396;27;20146;-70
2022/09/06 08:27:46;;;;;;;11.77;8.35;;;;;;;;;;6353758;27;20054;-68
2022/09/06 08:30:47;;;;;;;12.55;7.28;;;;;;;;;;6354596;27;20059;-68
2022/09/06 08:33:49;;;;;;;8.88;7.95;;;;;;;;;;6352850;27;20164;-68
2022/09/06 08:36:52;;;;;;;9.88;8.10;;;;;;;;;;6354556;27;20050;-66
2022/09/06 08:39:54;;;;;;;10.80;8.20;;;;;;;;;;6355287;27;20297;-68
2022/09/06 08:42:55;;;;;;;11.95;8.15;;;;;;;;;;6354291;27;20342;-67
2022/09/06 08:45:57;;;;;;;11.23;9.23;;;;;;;;;;6353670;27;20051;-67
2022/09/06 08:48:59;;;;;;;13.13;8.80;;;;;;;;;;6354808;27;20075;-66
2022/09/06 08:52:10;;;;;;;14.70;8.90;;;;;;;;;;6350811;27;20056;-67
2022/09/06 08:55:22;;;;;;;12.55;10.15;;;;;;;;;;6351158;27;20047;-67
2022/09/06 08:58:33;;;;;;;11.00;7.47;;;;;;;;;;6352067;27;20060;-67
2022/09/06 09:01:42;;;;;;;9.35;7.85;;;;;;;;;;6353999;27;20047;-66
2022/09/06 09:04:46;;;;;;;12.52;8.10;;;;;;;;;;6351218;27;20076;-69
2022/09/06 09:07:56;;;;;;;10.35;9.20;;;;;;;;;;6353245;27;20054;-70
2022/09/06 09:11:01;;;;;;;8.98;7.10;;;;;;;;;;6353776;27;20315;-67
2022/09/06 09:14:05;;;;;;;8.55;6.78;;;;;;;;;;6352302;27;20055;-67
2022/09/06 09:17:16;;;;;;;8.38;7.35;;;;;;;;;;6350925;27;20050;-66
2022/09/06 09:20:17;;;;;;;10.02;9.02;;;;;;;;;;6355769;27;20058;-65
2022/09/06 09:23:20;;;;;;;11.18;9.80;;;;;;;;;;6354333;27;20043;-67
2022/09/06 09:26:25;;;;;;;13.77;9.20;;;;;;;;;;6352465;27;20100;-67
2022/09/06 09:29:27;;;;;;;10.88;8.73;;;;;;;;;;6353762;27;20035;-67
2022/09/06 09:32:30;;;;;;;10.13;8.02;;;;;;;;;;6353178;27;20054;-67
2022/09/06 09:35:35;;;;;;;11.70;8.20;;;;;;;;;;6353635;27;20072;-67
2022/09/06 09:38:42;;;;;;;8.90;7.90;;;;;;;;;;6355872;27;20331;-68
2022/09/06 09:41:43;;;;;;;10.48;7.60;;;;;;;;;;6353823;27;20052;-67
2022/09/06 09:44:45;;;;;;;13.15;7.07;;;;;;;;;;6351541;27;20097;-69
2022/09/06 09:47:47;;;;;;;20.15;16.63;;;;;;;;;;6358857;27;20229;-68
2022/09/06 09:50:49;;;;;;;17.80;14.32;;;;;;;;;;6362821;27;20083;-68
2022/09/06 09:53:53;;;;;;;18.77;15.98;;;;;;;;;;6359631;27;20311;-68
2022/09/06 09:56:56;;;;;;;14.05;12.35;;;;;;;;;;6354719;27;20200;-68
2022/09/06 10:00:00;;;;;;;10.68;7.18;;;;;;;;;;6354422;28;20051;-68
2022/09/06 10:03:11;;;;;;;9.98;6.63;;;;;;;;;;6353604;28;20054;-68
2022/09/06 10:06:14;;;;;;;6.43;5.13;;;;;;;;;;6355138;28;20357;-68
2022/09/06 10:09:19;;;;;;;5.82;4.80;;;;;;;;;;6354080;27;20046;-68
2022/09/06 10:12:29;;;;;;;6.38;4.60;;;;;;;;;;6356471;28;20060;-69
2022/09/06 10:15:34;;;;;;;8.38;5.90;;;;;;;;;;6354965;28;20085;-68
2022/09/06 10:18:37;;;;;;;9.60;6.93;;;;;;;;;;6354635;28;20043;-68
2022/09/06 10:21:39;;;;;;;8.82;6.20;;;;;;;;;;6352541;28;20035;-68
2022/09/06 10:24:53;;;;;;;6.30;5.63;;;;;;;;;;6352279;27;20055;-68
2022/09/06 10:28:21;;;;;;;6.80;4.53;;;;;;;;;;6350981;28;20047;-67
2022/09/06 10:31:53;;;;;;;7.63;6.90;;;;;;;;;;6352218;28;20062;-68
2022/09/06 10:35:04;;;;;;;8.45;5.75;;;;;;;;;;6353095;28;20047;-70
2022/09/06 10:38:20;;;;;;;10.30;6.60;;;;;;;;;;6355027;28;20067;-69
2022/09/06 10:41:53;;;;;;;6.22;5.22;;;;;;;;;;6351290;28;20044;-70
2022/09/06 10:45:06;;;;;;;6.65;4.18;;;;;;;;;;6340010;28;20056;-68
2022/09/06 10:48:09;;;;;;;6.60;5.78;;;;;;;;;;6354376;28;20051;-68
2022/09/06 10:51:19;;;;;;;6.43;4.30;;;;;;;;;;6354088;28;20104;-68
2022/09/06 10:54:22;;;;;;;5.82;4.53;;;;;;;;;;6352222;28;20195;-69
2022/09/06 10:57:29;;;;;;;7.38;4.28;;;;;;;;;;6350914;27;20272;-68
2022/09/06 11:00:34;;;;;;;6.80;3.70;;;;;;;;;;6354769;27;20062;-69
2022/09/06 11:03:39;;;;;;;8.23;4.60;;;;;;;;;;6352505;27;20044;-67
2022/09/06 11:06:44;;;;;;;6.25;4.32;;;;;;;;;;6353037;27;20108;-69
2022/09/06 11:09:48;;;;;;;7.50;3.85;;;;;;;;;;6352157;27;20279;-68
2022/09/06 11:12:54;;;;;;;6.22;3.40;;;;;;;;;;6357408;27;20048;-67
2022/09/06 11:15:59;;;;;;;6.80;5.93;;;;;;;;;;6351224;27;20055;-69
2022/09/06 11:19:04;;;;;;;7.13;4.90;;;;;;;;;;6352937;27;20140;-68
2022/09/06 11:22:36;;;;;;;5.32;4.35;;;;;;;;;;6353131;27;20078;-69
2022/09/06 11:26:18;;;;;;;6.05;3.65;;;;;;;;;;6353508;27;20441;-69
2022/09/06 11:29:23;;;;;;;6.00;4.03;;;;;;;;;;6354833;27;20326;-68
2022/09/06 11:32:33;;;;;;;7.40;3.20;;;;;;;;;;6353479;27;20059;-69
2022/09/06 11:35:36;;;;;;;7.85;3.75;;;;;;;;;;6352527;27;20047;-72
2022/09/06 11:38:38;;;;;;;7.53;3.92;;;;;;;;;;6355745;27;20063;-69
2022/09/06 11:41:41;;;;;;;6.88;4.20;;;;;;;;;;6353517;27;20084;-68
2022/09/06 11:45:16;;;;;;;7.78;4.50;;;;;;;;;;6355182;27;20043;-69
2022/09/06 11:48:49;;;;;;;7.18;4.45;;;;;;;;;;6359239;27;20044;-68
2022/09/06 11:51:51;;;;;;;7.32;5.43;;;;;;;;;;6276676;28;20094;-68
2022/09/06 11:54:53;;;;;;;10.75;9.65;;;;;;;;;;6272942;28;20064;-68
2022/09/06 11:57:58;;;;;;;36.03;32.20;;;;;;;;;;6276834;28;20052;-69
2022/09/06 12:01:33;;;;;;;10.50;5.07;;;;;;;;;;6272706;28;20068;-66
2022/09/06 12:05:08;;;;;;;8.15;4.13;;;;;;;;;;6273538;28;20052;-68
2022/09/06 12:08:26;;;;;;;6.30;4.15;;;;;;;;;;6279082;28;20045;-66
2022/09/06 12:11:33;;;;;;;6.55;4.53;;;;;;;;;;6281781;28;20091;-66
2022/09/06 12:14:39;;;;;;;5.95;4.32;;;;;;;;;;6279426;28;20090;-68
2022/09/06 12:17:50;;;;;;;6.78;5.18;;;;;;;;;;6274786;28;20072;-67
2022/09/06 12:21:01;;;;;;;5.97;4.60;;;;;;;;;;6276147;28;20225;-66
2022/09/06 12:24:05;;;;;;;7.18;4.22;;;;;;;;;;6277429;28;20217;-67
2022/09/06 12:27:14;;;;;;;5.00;4.05;;;;;;;;;;6308670;28;20341;-67
2022/09/06 12:30:31;;;;;;;7.35;4.10;;;;;;;;;;6355417;27;20055;-67
2022/09/06 12:33:35;;;;;;;5.78;4.63;;;;;;;;;;6353714;27;20039;-69
2022/09/06 12:36:48;;;;;;;6.15;3.72;;;;;;;;;;6353510;27;20050;-67
2022/09/06 12:39:58;;;;;;;4.78;4.28;;;;;;;;;;6357429;27;20047;-67
2022/09/06 12:43:00;;;;;;;4.78;3.40;;;;;;;;;;6351052;27;20047;-67
2022/09/06 12:46:02;;;;;;;5.35;3.42;;;;;;;;;;6357592;27;20202;-66
2022/09/06 12:49:07;;;;;;;7.28;3.50;;;;;;;;;;6354804;27;20069;-66
2022/09/06 12:52:10;;;;;;;4.57;3.42;;;;;;;;;;6353605;27;20395;-67
2022/09/06 12:55:22;;;;;;;7.53;3.97;;;;;;;;;;6348855;27;20043;-67
2022/09/06 12:58:28;;;;;;;7.25;3.40;;;;;;;;;;6354678;27;21472;-67
2022/09/06 13:01:31;;;;;;;4.40;3.67;;;;;;;;;;6354916;27;20043;-68
2022/09/06 13:04:38;;;;;;;5.13;3.50;;;;;;;;;;6353896;27;20043;-67
2022/09/06 13:07:43;;;;;;;5.60;3.65;;;;;;;;;;6356585;27;20260;-67
2022/09/06 13:10:47;;;;;;;4.40;3.00;;;;;;;;;;6354026;27;20047;-67
2022/09/06 13:13:51;;;;;;;8.43;3.70;;;;;;;;;;6357532;27;20073;-67
2022/09/06 13:16:56;;;;;;;7.78;3.25;;;;;;;;;;6361039;27;20046;-68
2022/09/06 13:19:58;;;;;;;7.05;3.33;;;;;;;;;;6354014;27;20100;-68
2022/09/06 13:23:08;;;;;;;4.35;3.15;;;;;;;;;;6354184;27;20103;-67
2022/09/06 13:26:11;;;;;;;7.13;4.03;;;;;;;;;;6359387;27;20054;-67
2022/09/06 13:29:22;;;;;;;4.43;2.97;;;;;;;;;;6357483;27;20082;-67
2022/09/06 13:32:24;;;;;;;8.68;4.03;;;;;;;;;;6356855;27;20943;-68
2022/09/06 13:35:29;;;;;;;7.35;4.38;;;;;;;;;;6360883;27;20051;-67
2022/09/06 13:38:33;;;;;;;5.93;3.67;;;;;;;;;;6358963;27;20063;-69
2022/09/06 13:41:39;;;;;;;4.47;4.07;;;;;;;;;;6359428;27;20048;-68
2022/09/06 13:44:41;;;;;;;8.02;3.40;;;;;;;;;;6360695;27;20074;-66
2022/09/06 13:47:43;;;;;;;;;;;;;;;;;;6361756;28;20326;-67
2022/09/06 13:50:44;;;;;;;5.13;3.63;;;;;;;;;;6355820;27;20207;-69
2022/09/06 13:53:46;;;;;;;3.60;3.17;;;;;;;;;;6359267;27;20047;-68
2022/09/06 13:56:50;;;;;;;3.92;3.53;;;;;;;;;;6351599;28;20044;-68
2022/09/06 13:59:52;;;;;;;4.18;3.25;;;;;;;;;;6357330;28;20056;-68
2022/09/06 14:02:54;;;;;;;8.57;4.57;;;;;;;;;;6357354;28;20043;-67
2022/09/06 14:05:56;;;;;;;4.43;3.85;;;;;;;;;;6359177;28;20243;-67
2022/09/06 14:08:57;;;;;;;5.40;4.00;;;;;;;;;;6356784;28;20055;-69
2022/09/06 14:12:01;;;;;;;14.13;11.50;;;;;;;;;;6351953;28;20051;-68
2022/09/06 14:15:02;;;;;;;9.88;6.22;;;;;;;;;;6357929;27;20517;-69
2022/09/06 14:18:04;;;;;;;11.38;4.80;;;;;;;;;;6356858;28;20052;-68
2022/09/06 14:21:06;;;;;;;4.85;3.45;;;;;;;;;;6358991;27;20093;-68
2022/09/06 14:24:08;;;;;;;5.90;3.88;;;;;;;;;;6353072;28;20104;-67
2022/09/06 14:27:11;;;;;;;;;;;;;;;;;;6356191;27;20051;-70
2022/09/06 14:30:13;;;;;;;7.13;3.08;;;;;;;;;;6356654;27;19916;-68
2022/09/06 14:33:15;;;;;;;5.13;3.20;;;;;;;;;;6351367;27;20046;-68
2022/09/06 14:36:18;;;;;;;4.78;3.15;;;;;;;;;;6365270;27;20051;-73
2022/09/06 14:39:20;;;;;;;4.78;2.78;;;;;;;;;;6360657;27;20323;-69
2022/09/06 14:42:23;;;;;;;4.18;2.88;;;;;;;;;;6362906;27;20054;-68
2022/09/06 14:45:25;;;;;;;8.05;2.70;;;;;;;;;;6362625;27;20064;-69
2022/09/06 14:48:28;;;;;;;3.20;2.30;;;;;;;;;;6362891;27;20043;-68
2022/09/06 14:51:30;;;;;;;5.85;3.50;;;;;;;;;;6361666;27;20385;-68
2022/09/06 14:54:32;;;;;;;6.97;3.00;;;;;;;;;;6361301;27;20058;-69
2022/09/06 14:57:35;;;;;;;6.78;3.10;;;;;;;;;;6363044;27;20183;-69
2022/09/06 15:00:37;;;;;;;9.75;3.30;;;;;;;;;;6360362;27;20044;-68
2022/09/06 15:03:39;;;;;;;5.25;2.88;;;;;;;;;;6364565;27;20035;-71
2022/09/06 15:06:45;;;;;;;6.47;2.80;;;;;;;;;;6359058;27;20066;-68
2022/09/06 15:09:49;;;;;;;5.28;2.85;;;;;;;;;;6359260;27;20088;-68
2022/09/06 15:12:53;;;;;;;5.57;2.72;;;;;;;;;;6358352;27;20354;-68
2022/09/06 15:15:54;;;;;;;4.75;3.17;;;;;;;;;;6360384;27;20075;-68
2022/09/06 15:18:56;;;;;;;;;;;;;;;;;;6361527;27;20052;-69
2022/09/06 15:21:58;;;;;;;5.18;3.95;;;;;;;;;;6355897;27;19924;-70
2022/09/06 15:24:59;;;;;;;;;;;;;;;;;;6353157;27;20055;-68
2022/09/06 15:28:03;;;;;;;12.67;3.77;;;;;;;;;;6356862;27;19916;-68
2022/09/06 15:31:05;;;;;;;15.88;4.32;;;;;;;;;;6359173;27;20489;-67
2022/09/06 15:34:07;;;;;;;8.68;4.03;;;;;;;;;;6360808;27;20107;-67
2022/09/06 15:37:09;;;;;;;6.13;3.90;;;;;;;;;;6360797;27;20089;-68
2022/09/06 15:40:11;;;;;;;7.00;3.42;;;;;;;;;;6361551;27;20081;-68
2022/09/06 15:43:14;;;;;;;;;;;;;;;;;;6358268;27;20048;-67
2022/09/06 15:46:19;;;;;;;6.57;3.33;;;;;;;;;;6350975;27;19927;-69
2022/09/06 15:49:23;;;;;;;4.28;2.90;;;;;;;;;;6355259;27;20074;-67
2022/09/06 15:52:25;;;;;;;7.05;2.95;;;;;;;;;;6359773;27;20055;-68
2022/09/06 15:58:50;;;;;;;8.70;3.53;;;;;;;;;;6355707;27;20046;-67
2022/09/06 16:01:52;;;;;;;4.00;3.30;;;;;;;;;;6357353;27;20079;-67
2022/09/06 16:05:01;;;;;;;8.73;3.78;;;;;;;;;;6360496;27;20100;-68
2022/09/06 16:08:04;;;;;;;11.32;3.30;;;;;;;;;;6362466;27;20105;-68
2022/09/06 16:11:07;;;;;;;12.45;4.05;;;;;;;;;;6356218;27;20051;-68
2022/09/06 16:14:12;;;;;;;6.57;3.63;;;;;;;;;;6360050;27;20301;-68
2022/09/06 16:17:14;;;;;;;5.40;3.35;;;;;;;;;;6362367;27;20047;-68
2022/09/06 16:20:16;;;;;;;7.05;3.20;;;;;;;;;;6358466;27;20048;-68
2022/09/06 16:23:18;;;;;;;9.38;3.33;;;;;;;;;;6362105;27;20044;-68
2022/09/06 16:26:20;;;;;;;5.35;3.10;;;;;;;;;;6356216;27;20111;-70
2022/09/06 16:29:24;;;;;;;5.13;3.35;;;;;;;;;;6354675;27;20043;-71
2022/09/06 16:32:26;;;;;;;4.70;2.70;;;;;;;;;;6359406;27;20058;-69
2022/09/06 16:35:27;;;;;;;4.18;2.60;;;;;;;;;;6357764;27;20047;-70
2022/09/06 16:38:30;;;;;;;9.02;3.53;;;;;;;;;;6358746;27;20365;-69
2022/09/06 16:41:36;;;;;;;6.93;3.58;;;;;;;;;;6363778;27;20145;-70
2022/09/06 16:44:39;;;;;;;6.32;3.17;;;;;;;;;;6356312;27;20346;-69
2022/09/06 16:47:41;;;;;;;7.53;3.10;;;;;;;;;;6360064;27;20114;-69
2022/09/06 16:50:43;;;;;;;;;;;;;;;;;;6361724;27;20055;-69
2022/09/06 16:53:47;;;;;;;8.83;2.77;;;;;;;;;;6355895;27;20222;-69
2022/09/06 16:56:48;;;;;;;6.88;3.33;;;;;;;;;;6356902;27;20051;-68
2022/09/06 16:59:51;;;;;;;7.38;3.35;;;;;;;;;;6361742;27;20044;-68
2022/09/06 17:02:53;;;;;;;4.53;2.90;;;;;;;;;;6356738;27;20044;-69
2022/09/06 17:05:55;;;;;;;7.90;2.97;;;;;;;;;;6362638;27;20079;-69
2022/09/06 17:08:58;;;;;;;8.37;3.17;;;;;;;;;;6360620;27;20055;-69
2022/09/06 17:11:59;;;;;;;8.20;3.00;;;;;;;;;;6360133;27;20051;-68
2022/09/06 17:15:02;;;;;;;6.63;3.47;;;;;;;;;;6361497;27;20231;-68
2022/09/06 17:18:03;;;;;;;11.90;3.35;;;;;;;;;;6362008;27;20515;-68
2022/09/06 17:21:06;;;;;;;6.57;3.33;;;;;;;;;;6357444;27;20108;-68
2022/09/06 17:24:07;;;;;;;;;;;;;;;;;;6363765;27;20047;-69
2022/09/06 17:27:13;;;;;;;13.25;3.40;;;;;;;;;;6354397;27;20145;-68
2022/09/06 17:30:17;;;;;;;8.57;3.13;;;;;;;;;;6354589;27;20100;-69
2022/09/06 17:33:19;;;;;;;5.82;3.45;;;;;;;;;;6353409;27;20216;-68
2022/09/06 17:36:22;;;;;;;;;;;;;;;;;;6354419;27;20051;-67
2022/09/06 17:39:23;;;;;;;5.85;3.88;;;;;;;;;;6361583;27;19962;-68
2022/09/06 17:42:25;;;;;;;6.57;3.47;;;;;;;;;;6363193;27;20062;-68
2022/09/06 17:45:28;;;;;;;7.35;3.55;;;;;;;;;;6354147;27;20058;-67
2022/09/06 17:48:30;;;;;;;7.18;3.60;;;;;;;;;;6358025;27;20223;-68
2022/09/06 17:51:33;;;;;;;8.48;3.95;;;;;;;;;;6361837;27;20395;-67
2022/09/06 17:54:35;;;;;;;6.97;4.20;;;;;;;;;;6360185;27;20070;-69
2022/09/06 17:57:37;;;;;;;10.23;3.77;;;;;;;;;;6356865;27;20056;-67
2022/09/06 18:00:40;;;;;;;;;;;;;;;;;;6362138;27;20855;-68
2022/09/06 18:03:45;;;;;;;7.68;3.13;;;;;;;;;;6360853;28;19930;-68
2022/09/06 18:06:46;;;;;;;9.38;3.50;;;;;;;;;;6357989;27;20059;-66
2022/09/06 18:09:48;;;;;;;9.95;3.97;;;;;;;;;;6365866;27;20059;-67
2022/09/06 18:12:50;;;;;;;8.75;3.78;;;;;;;;;;6365984;27;20044;-66
2022/09/06 18:15:56;;;;;;;6.32;3.03;;;;;;;;;;6365727;27;20350;-67
2022/09/06 18:18:59;;;;;;;8.98;3.63;;;;;;;;;;6364808;27;20058;-68
2022/09/06 18:22:03;;;;;;;7.38;3.33;;;;;;;;;;6364451;27;20067;-66
2022/09/06 18:25:15;;;;;;;11.52;3.80;;;;;;;;;;6364694;27;20050;-65
2022/09/06 18:28:17;;;;;;;13.13;3.83;;;;;;;;;;6361311;27;20357;-66
2022/09/06 18:31:22;;;;;;;5.68;3.63;;;;;;;;;;6366524;27;20047;-67